createdAt,value
2023-01-05T00:00:55.891Z,13.09
2023-01-05T00:01:54.204Z,13.07
2023-01-05T00:02:55.540Z,13.02
2023-01-05T00:03:54.927Z,12.98
2023-01-05T00:04:53.985Z,12.95
2023-01-05T00:05:55.108Z,12.92
2023-01-05T00:06:54.836Z,12.88
2023-01-05T00:07:55.748Z,12.85
2023-01-05T00:08:54.169Z,12.81
2023-01-05T00:09:55.138Z,12.79
2023-01-05T00:10:55.031Z,12.76
2023-01-05T00:11:54.493Z,12.73
2023-01-05T00:12:54.980Z,12.71
2023-01-05T00:13:54.990Z,12.70
2023-01-05T00:14:54.499Z,12.68
2023-01-05T00:15:54.947Z,12.67
2023-01-05T00:16:54.486Z,12.66
2023-01-05T00:17:54.919Z,12.65
2023-01-05T00:18:55.181Z,12.65
2023-01-05T00:19:55.438Z,12.66
2023-01-05T00:20:54.942Z,12.66
2023-01-05T00:21:55.346Z,12.67
2023-01-05T00:22:57.252Z,12.68
2023-01-05T00:23:53.813Z,12.70
2023-01-05T00:24:55.553Z,12.69
2023-01-05T00:25:54.433Z,12.72
2023-01-05T00:26:54.862Z,12.72
2023-01-05T00:27:58.249Z,12.73
2023-01-05T00:28:54.862Z,12.74
2023-01-05T00:29:54.313Z,12.76
2023-01-05T00:30:54.291Z,12.77
2023-01-05T00:31:54.538Z,12.78
2023-01-05T00:32:55.483Z,12.79
2023-01-05T00:33:54.924Z,12.78
2023-01-05T00:34:54.255Z,12.78
2023-01-05T00:35:54.809Z,12.79
2023-01-05T00:36:55.521Z,12.78
2023-01-05T00:37:54.777Z,12.75
2023-01-05T00:38:54.729Z,12.74
2023-01-05T00:39:55.188Z,12.74
2023-01-05T00:40:54.667Z,12.72
2023-01-05T00:41:53.262Z,12.71
2023-01-05T00:43:00.196Z,12.71
2023-01-05T00:43:55.555Z,12.72
2023-01-05T00:44:54.775Z,12.72
2023-01-05T00:45:53.396Z,12.73
2023-01-05T00:46:54.125Z,12.73
2023-01-05T00:47:54.106Z,12.75
2023-01-05T00:48:54.617Z,12.75
2023-01-05T00:49:54.317Z,12.76
2023-01-05T00:50:54.848Z,12.77
2023-01-05T00:51:54.632Z,12.78
2023-01-05T00:52:56.643Z,12.78
2023-01-05T00:53:55.399Z,12.79
2023-01-05T00:54:54.969Z,12.80
2023-01-05T00:55:54.566Z,12.83
2023-01-05T00:56:54.156Z,12.84
2023-01-05T00:57:54.058Z,12.85
2023-01-05T00:58:54.009Z,12.86
2023-01-05T00:59:55.070Z,12.87
2023-01-05T01:00:54.922Z,12.88
2023-01-05T01:01:54.158Z,12.90
2023-01-05T01:02:55.048Z,12.90
2023-01-05T01:03:54.518Z,12.91
2023-01-05T01:04:54.474Z,12.92
2023-01-05T01:05:54.433Z,12.94
2023-01-05T01:06:53.929Z,12.95
2023-01-05T01:07:54.441Z,12.95
2023-01-05T01:08:53.924Z,12.96
2023-01-05T01:09:54.922Z,12.97
2023-01-05T01:10:53.099Z,12.98
2023-01-05T01:12:00.708Z,12.99
2023-01-05T01:12:53.902Z,13.00
2023-01-05T01:13:55.828Z,12.99
2023-01-05T01:14:53.136Z,13.01
2023-01-05T01:15:52.949Z,13.01
2023-01-05T01:16:53.917Z,13.00
2023-01-05T01:17:55.400Z,13.02
2023-01-05T01:18:54.282Z,13.01
2023-01-05T01:19:54.270Z,13.02
2023-01-05T01:20:53.773Z,13.03
2023-01-05T01:21:53.795Z,13.03
2023-01-05T01:22:53.716Z,13.04
2023-01-05T01:23:54.250Z,13.04
2023-01-05T01:24:54.206Z,13.04
2023-01-05T01:25:54.211Z,13.04
2023-01-05T01:26:53.781Z,13.05
2023-01-05T01:27:54.160Z,13.06
2023-01-05T01:28:54.169Z,13.05
2023-01-05T01:29:54.137Z,13.05
2023-01-05T01:30:54.762Z,13.04
2023-01-05T01:31:55.236Z,13.04
2023-01-05T01:32:53.950Z,13.04
2023-01-05T01:33:53.635Z,13.04
2023-01-05T01:34:54.231Z,13.02
2023-01-05T01:35:55.437Z,13.02
2023-01-05T01:36:54.682Z,13.02
2023-01-05T01:37:53.607Z,13.02
2023-01-05T01:38:54.095Z,13.02
2023-01-05T01:40:00.347Z,13.01
2023-01-05T01:40:55.087Z,13.02
2023-01-05T01:41:53.530Z,13.02
2023-01-05T01:42:53.061Z,13.01
2023-01-05T01:43:54.193Z,13.01
2023-01-05T01:44:55.404Z,13.00
2023-01-05T01:45:53.522Z,12.98
2023-01-05T01:46:52.864Z,12.99
2023-01-05T01:47:53.594Z,12.99
2023-01-05T01:48:54.687Z,12.98
2023-01-05T01:49:53.902Z,12.98
2023-01-05T01:50:54.268Z,12.98
2023-01-05T01:51:52.697Z,12.98
2023-01-05T01:52:54.106Z,12.98
2023-01-05T01:53:54.031Z,12.99
2023-01-05T01:54:53.410Z,12.99
2023-01-05T01:55:53.972Z,13.00
2023-01-05T01:56:53.900Z,13.00
2023-01-05T01:57:53.364Z,13.00
2023-01-05T01:58:53.829Z,13.01
2023-01-05T01:59:53.341Z,13.01
2023-01-05T02:00:53.342Z,13.01
2023-01-05T02:01:53.880Z,13.01
2023-01-05T02:02:53.815Z,13.01
2023-01-05T02:03:53.306Z,13.01
2023-01-05T02:04:53.875Z,13.01
2023-01-05T02:05:53.264Z,13.02
2023-01-05T02:06:52.853Z,13.01
2023-01-05T02:07:54.256Z,13.00
2023-01-05T02:08:53.824Z,13.00
2023-01-05T02:09:53.273Z,13.00
2023-01-05T02:10:53.225Z,12.98
2023-01-05T02:11:53.204Z,12.96
2023-01-05T02:12:53.185Z,12.94
2023-01-05T02:13:53.672Z,12.94
2023-01-05T02:14:53.274Z,12.92
2023-01-05T02:15:53.155Z,12.91
2023-01-05T02:16:53.785Z,12.89
2023-01-05T02:17:54.143Z,12.87
2023-01-05T02:18:53.132Z,12.84
2023-01-05T02:19:53.634Z,12.82
2023-01-05T02:20:53.607Z,12.80
2023-01-05T02:21:53.095Z,12.78
2023-01-05T02:22:54.465Z,12.76
2023-01-05T02:23:53.078Z,12.74
2023-01-05T02:24:53.059Z,12.73
2023-01-05T02:25:53.550Z,12.72
2023-01-05T02:26:53.061Z,12.71
2023-01-05T02:27:54.044Z,12.69
2023-01-05T02:28:53.522Z,12.68
2023-01-05T02:29:53.520Z,12.68
2023-01-05T02:30:53.005Z,12.65
2023-01-05T02:31:53.511Z,12.64
2023-01-05T02:32:52.981Z,12.63
2023-01-05T02:33:53.461Z,12.61
2023-01-05T02:34:52.973Z,12.59
2023-01-05T02:35:53.013Z,12.58
2023-01-05T02:36:53.452Z,12.57
2023-01-05T02:37:53.414Z,12.56
2023-01-05T02:38:52.913Z,12.56
2023-01-05T02:39:53.407Z,12.54
2023-01-05T02:40:52.890Z,12.52
2023-01-05T02:41:53.426Z,12.50
2023-01-05T02:42:53.365Z,12.49
2023-01-05T02:43:53.363Z,12.48
2023-01-05T02:44:53.361Z,12.47
2023-01-05T02:45:52.842Z,12.46
2023-01-05T02:46:53.305Z,12.45
2023-01-05T02:47:53.323Z,12.45
2023-01-05T02:48:53.287Z,12.44
2023-01-05T02:49:52.059Z,12.43
2023-01-05T02:50:53.278Z,12.42
2023-01-05T02:51:53.265Z,12.41
2023-01-05T02:52:53.255Z,12.40
2023-01-05T02:53:52.874Z,12.39
2023-01-05T02:54:53.225Z,12.38
2023-01-05T02:55:52.698Z,12.36
2023-01-05T02:56:54.108Z,12.35
2023-01-05T02:57:53.199Z,12.34
2023-01-05T02:58:53.195Z,12.33
2023-01-05T02:59:52.403Z,12.32
2023-01-05T03:00:52.695Z,12.32
2023-01-05T03:01:52.748Z,12.32
2023-01-05T03:02:52.582Z,12.30
2023-01-05T03:03:52.637Z,12.29
2023-01-05T03:04:52.657Z,12.28
2023-01-05T03:05:52.656Z,12.28
2023-01-05T03:06:52.608Z,12.27
2023-01-05T03:07:52.597Z,12.26
2023-01-05T03:08:52.307Z,12.25
2023-01-05T03:09:52.588Z,12.24
2023-01-05T03:10:52.558Z,12.24
2023-01-05T03:11:52.290Z,12.24
2023-01-05T03:12:52.269Z,12.22
2023-01-05T03:13:52.266Z,12.22
2023-01-05T03:14:52.246Z,12.22
2023-01-05T03:15:52.554Z,12.23
2023-01-05T03:16:52.497Z,12.22
2023-01-05T03:17:52.604Z,12.22
2023-01-05T03:18:52.491Z,12.22
2023-01-05T03:19:52.475Z,12.21
2023-01-05T03:20:52.183Z,12.21
2023-01-05T03:21:52.187Z,12.21
2023-01-05T03:22:51.628Z,12.20
2023-01-05T03:23:52.443Z,12.20
2023-01-05T03:24:52.134Z,12.21
2023-01-05T03:25:52.392Z,12.19
2023-01-05T03:26:52.405Z,12.18
2023-01-05T03:27:52.362Z,12.17
2023-01-05T03:28:51.424Z,12.17
2023-01-05T03:29:51.465Z,12.15
2023-01-05T03:30:52.132Z,12.14
2023-01-05T03:31:52.078Z,12.13
2023-01-05T03:32:52.053Z,12.12
2023-01-05T03:33:52.033Z,12.11
2023-01-05T03:34:52.303Z,12.10
2023-01-05T03:35:52.316Z,12.08
2023-01-05T03:36:52.013Z,12.07
2023-01-05T03:37:51.995Z,12.07
2023-01-05T03:38:52.260Z,12.06
2023-01-05T03:39:51.985Z,12.06
2023-01-05T03:40:52.268Z,12.06
2023-01-05T03:41:51.946Z,12.05
2023-01-05T03:42:52.216Z,12.05
2023-01-05T03:43:51.938Z,12.06
2023-01-05T03:44:51.916Z,12.05
2023-01-05T03:45:52.215Z,12.06
2023-01-05T03:46:52.187Z,12.06
2023-01-05T03:47:52.302Z,12.07
2023-01-05T03:48:52.174Z,12.07
2023-01-05T03:49:52.126Z,12.08
2023-01-05T03:50:51.199Z,12.08
2023-01-05T03:51:51.197Z,12.10
2023-01-05T03:52:52.142Z,12.10
2023-01-05T03:53:52.237Z,12.11
2023-01-05T03:54:52.081Z,12.11
2023-01-05T03:55:51.817Z,12.11
2023-01-05T03:56:51.798Z,12.12
2023-01-05T03:57:51.790Z,12.12
2023-01-05T03:58:51.783Z,12.12
2023-01-05T03:59:52.088Z,12.13
2023-01-05T04:00:51.756Z,12.13
2023-01-05T04:01:51.198Z,12.13
2023-01-05T04:02:51.905Z,12.12
2023-01-05T04:03:52.054Z,12.12
2023-01-05T04:04:51.982Z,12.14
2023-01-05T04:05:51.755Z,12.14
2023-01-05T04:06:51.982Z,12.15
2023-01-05T04:07:51.681Z,12.15
2023-01-05T04:08:51.663Z,12.15
2023-01-05T04:09:51.654Z,12.15
2023-01-05T04:10:51.641Z,12.16
2023-01-05T04:11:51.932Z,12.17
2023-01-05T04:12:51.524Z,12.18
2023-01-05T04:13:50.937Z,12.17
2023-01-05T04:14:51.605Z,12.17
2023-01-05T04:15:50.987Z,12.18
2023-01-05T04:16:51.585Z,12.17
2023-01-05T04:17:51.634Z,12.16
2023-01-05T04:18:51.570Z,12.16
2023-01-05T04:19:50.906Z,12.15
2023-01-05T04:20:51.808Z,12.15
2023-01-05T04:21:51.531Z,12.14
2023-01-05T04:22:51.799Z,12.14
2023-01-05T04:23:51.500Z,12.14
2023-01-05T04:24:52.755Z,12.14
2023-01-05T04:25:51.487Z,12.14
2023-01-05T04:26:51.481Z,12.14
2023-01-05T04:27:51.466Z,12.14
2023-01-05T04:28:51.459Z,12.14
2023-01-05T04:29:51.506Z,12.14
2023-01-05T04:30:51.761Z,12.14
2023-01-05T04:31:50.737Z,12.15
2023-01-05T04:32:50.752Z,12.15
2023-01-05T04:33:50.799Z,12.16
2023-01-05T04:34:51.670Z,12.16
2023-01-05T04:35:51.366Z,12.16
2023-01-05T04:36:50.706Z,12.16
2023-01-05T04:37:50.707Z,12.15
2023-01-05T04:38:51.366Z,12.16
2023-01-05T04:39:51.598Z,12.16
2023-01-05T04:40:52.104Z,12.17
2023-01-05T04:41:51.307Z,12.17
2023-01-05T04:42:50.641Z,12.18
2023-01-05T04:43:50.654Z,12.17
2023-01-05T04:44:51.297Z,12.18
2023-01-05T04:45:51.520Z,12.17
2023-01-05T04:46:51.308Z,12.18
2023-01-05T04:47:51.234Z,12.18
2023-01-05T04:48:51.240Z,12.20
2023-01-05T04:49:51.236Z,12.20
2023-01-05T04:50:50.542Z,12.20
2023-01-05T04:51:51.213Z,12.21
2023-01-05T04:52:51.962Z,12.21
2023-01-05T04:53:51.180Z,12.22
2023-01-05T04:54:50.495Z,12.22
2023-01-05T04:55:51.173Z,12.22
2023-01-05T04:56:51.153Z,12.22
2023-01-05T04:57:51.136Z,12.22
2023-01-05T04:58:51.123Z,12.23
2023-01-05T04:59:51.105Z,12.22
2023-01-05T05:00:50.465Z,12.21
2023-01-05T05:01:51.146Z,12.20
2023-01-05T05:02:51.158Z,12.18
2023-01-05T05:03:51.109Z,12.17
2023-01-05T05:04:51.066Z,12.15
2023-01-05T05:05:51.135Z,12.15
2023-01-05T05:06:50.371Z,12.13
2023-01-05T05:07:50.365Z,12.13
2023-01-05T05:08:51.014Z,12.12
2023-01-05T05:09:51.004Z,12.10
2023-01-05T05:10:51.271Z,12.09
2023-01-05T05:11:50.992Z,12.08
2023-01-05T05:12:50.979Z,12.07
2023-01-05T05:13:50.980Z,12.07
2023-01-05T05:14:50.961Z,12.07
2023-01-05T05:15:50.962Z,12.06
2023-01-05T05:16:50.946Z,12.06
2023-01-05T05:17:51.237Z,12.06
2023-01-05T05:18:50.908Z,12.05
2023-01-05T05:19:50.898Z,12.05
2023-01-05T05:20:51.157Z,12.04
2023-01-05T05:21:50.889Z,12.04
2023-01-05T05:22:51.108Z,12.04
2023-01-05T05:23:51.128Z,12.04
2023-01-05T05:24:50.846Z,12.03
2023-01-05T05:25:50.190Z,12.04
2023-01-05T05:26:50.832Z,12.05
2023-01-05T05:27:50.820Z,12.04
2023-01-05T05:28:50.814Z,12.05
2023-01-05T05:29:50.151Z,12.05
2023-01-05T05:30:50.246Z,12.05
2023-01-05T05:31:50.819Z,12.05
2023-01-05T05:32:52.031Z,12.05
2023-01-05T05:33:50.749Z,12.05
2023-01-05T05:34:50.751Z,12.06
2023-01-05T05:35:51.036Z,12.06
2023-01-05T05:36:50.732Z,12.06
2023-01-05T05:37:56.200Z,12.06
2023-01-05T05:38:51.021Z,12.06
2023-01-05T05:39:50.682Z,12.06
2023-01-05T05:40:49.998Z,12.06
2023-01-05T05:41:50.014Z,12.05
2023-01-05T05:42:49.994Z,12.04
2023-01-05T05:43:50.888Z,12.03
2023-01-05T05:44:50.029Z,12.03
2023-01-05T05:45:51.132Z,12.02
2023-01-05T05:46:51.527Z,12.01
2023-01-05T05:47:50.624Z,12.01
2023-01-05T05:48:50.904Z,12.01
2023-01-05T05:49:50.583Z,12.00
2023-01-05T05:50:50.574Z,12.00
2023-01-05T05:51:50.720Z,12.00
2023-01-05T05:52:49.905Z,11.99
2023-01-05T05:53:50.816Z,11.98
2023-01-05T05:54:50.538Z,11.98
2023-01-05T05:55:50.522Z,11.98
2023-01-05T05:56:51.753Z,11.97
2023-01-05T05:57:50.495Z,11.96
2023-01-05T05:58:54.710Z,11.95
2023-01-05T05:59:52.268Z,11.94
2023-01-05T06:00:51.725Z,11.93
2023-01-05T06:01:51.782Z,11.91
2023-01-05T06:02:50.772Z,11.90
2023-01-05T06:03:51.766Z,11.90
2023-01-05T06:04:50.694Z,11.89
2023-01-05T06:05:49.756Z,11.90
2023-01-05T06:06:51.657Z,11.91
2023-01-05T06:07:51.647Z,11.92
2023-01-05T06:08:50.664Z,11.91
2023-01-05T06:09:51.648Z,11.93
2023-01-05T06:10:50.637Z,11.92
2023-01-05T06:11:51.612Z,11.92
2023-01-05T06:12:52.537Z,11.92
2023-01-05T06:13:51.580Z,11.90
2023-01-05T06:14:51.572Z,11.89
2023-01-05T06:15:50.621Z,11.89
2023-01-05T06:16:51.641Z,11.90
2023-01-05T06:17:51.561Z,11.90
2023-01-05T06:18:51.534Z,11.90
2023-01-05T06:19:50.531Z,11.91
2023-01-05T06:20:56.309Z,11.92
2023-01-05T06:21:51.512Z,11.92
2023-01-05T06:22:50.506Z,11.93
2023-01-05T06:23:51.472Z,11.94
2023-01-05T06:24:50.468Z,11.94
2023-01-05T06:25:51.471Z,11.94
2023-01-05T06:26:51.465Z,11.95
2023-01-05T06:27:50.476Z,11.96
2023-01-05T06:28:50.179Z,11.96
2023-01-05T06:29:50.181Z,11.98
2023-01-05T06:30:51.444Z,11.98
2023-01-05T06:31:50.165Z,11.98
2023-01-05T06:32:50.103Z,11.99
2023-01-05T06:33:50.125Z,12.00
2023-01-05T06:34:50.373Z,12.00
2023-01-05T06:35:50.749Z,12.01
2023-01-05T06:36:50.081Z,12.01
2023-01-05T06:37:50.378Z,12.01
2023-01-05T06:38:50.066Z,12.02
2023-01-05T06:39:50.045Z,12.03
2023-01-05T06:40:49.391Z,12.03
2023-01-05T06:41:50.032Z,12.04
2023-01-05T06:42:50.017Z,12.04
2023-01-05T06:43:50.000Z,12.04
2023-01-05T06:44:50.339Z,12.05
2023-01-05T06:45:51.286Z,12.05
2023-01-05T06:46:49.985Z,12.06
2023-01-05T06:47:50.207Z,12.06
2023-01-05T06:48:49.957Z,12.07
2023-01-05T06:49:51.341Z,12.07
2023-01-05T06:50:49.945Z,12.07
2023-01-05T06:51:51.196Z,12.07
2023-01-05T06:52:50.150Z,12.06
2023-01-05T06:53:49.909Z,12.07
2023-01-05T06:54:49.892Z,12.07
2023-01-05T06:55:49.858Z,12.06
2023-01-05T06:56:50.156Z,12.06
2023-01-05T06:57:52.407Z,12.06
2023-01-05T06:58:50.589Z,12.07
2023-01-05T06:59:50.065Z,12.07
2023-01-05T07:00:50.120Z,12.07
2023-01-05T07:01:50.578Z,12.08
2023-01-05T07:02:50.038Z,12.09
2023-01-05T07:03:49.837Z,12.11
2023-01-05T07:04:49.803Z,12.11
2023-01-05T07:05:50.021Z,12.11
2023-01-05T07:06:49.768Z,12.12
2023-01-05T07:07:50.078Z,12.13
2023-01-05T07:08:49.990Z,12.13
2023-01-05T07:09:49.749Z,12.14
2023-01-05T07:10:49.740Z,12.15
2023-01-05T07:11:49.972Z,12.15
2023-01-05T07:12:49.970Z,12.14
2023-01-05T07:13:49.694Z,12.16
2023-01-05T07:14:55.712Z,12.17
2023-01-05T07:15:50.902Z,12.16
2023-01-05T07:16:49.946Z,12.17
2023-01-05T07:17:49.654Z,12.17
2023-01-05T07:18:49.913Z,12.17
2023-01-05T07:19:50.040Z,12.16
2023-01-05T07:20:49.855Z,12.17
2023-01-05T07:21:56.447Z,12.17
2023-01-05T07:22:50.852Z,12.17
2023-01-05T07:23:49.832Z,12.16
2023-01-05T07:24:49.814Z,12.17
2023-01-05T07:25:49.552Z,12.17
2023-01-05T07:26:49.547Z,12.18
2023-01-05T07:27:49.547Z,12.19
2023-01-05T07:28:49.775Z,12.19
2023-01-05T07:29:49.824Z,12.19
2023-01-05T07:30:49.805Z,12.20
2023-01-05T07:31:49.540Z,12.20
2023-01-05T07:32:49.486Z,12.22
2023-01-05T07:33:49.488Z,12.22
2023-01-05T07:34:55.501Z,12.22
2023-01-05T07:35:51.405Z,12.23
2023-01-05T07:36:49.687Z,12.24
2023-01-05T07:37:49.424Z,12.24
2023-01-05T07:38:49.420Z,12.25
2023-01-05T07:39:49.420Z,12.26
2023-01-05T07:40:49.397Z,12.26
2023-01-05T07:41:49.387Z,12.27
2023-01-05T07:42:49.377Z,12.27
2023-01-05T07:43:49.791Z,12.28
2023-01-05T07:44:49.364Z,12.30
2023-01-05T07:45:49.363Z,12.30
2023-01-05T07:46:49.339Z,12.30
2023-01-05T07:47:49.661Z,12.30
2023-01-05T07:48:49.322Z,12.30
2023-01-05T07:49:49.397Z,12.30
2023-01-05T07:50:49.568Z,12.30
2023-01-05T07:51:49.563Z,12.31
2023-01-05T07:52:49.276Z,12.31
2023-01-05T07:53:49.263Z,12.31
2023-01-05T07:54:49.526Z,12.32
2023-01-05T07:55:49.261Z,12.32
2023-01-05T07:56:49.499Z,12.33
2023-01-05T07:57:49.480Z,12.33
2023-01-05T07:58:49.462Z,12.33
2023-01-05T07:59:49.199Z,12.34
2023-01-05T08:00:49.247Z,12.34
2023-01-05T08:01:49.560Z,12.35
2023-01-05T08:02:49.170Z,12.35
2023-01-05T08:03:49.229Z,12.35
2023-01-05T08:04:49.445Z,12.36
2023-01-05T08:05:49.131Z,12.36
2023-01-05T08:06:49.415Z,12.36
2023-01-05T08:07:49.376Z,12.36
2023-01-05T08:08:49.375Z,12.37
2023-01-05T08:09:49.373Z,12.37
2023-01-05T08:10:49.350Z,12.38
2023-01-05T08:11:49.315Z,12.37
2023-01-05T08:12:49.325Z,12.39
2023-01-05T08:13:49.035Z,12.40
2023-01-05T08:14:49.037Z,12.39
2023-01-05T08:15:51.292Z,12.41
2023-01-05T08:16:49.414Z,12.41
2023-01-05T08:17:48.995Z,12.42
2023-01-05T08:18:48.987Z,12.42
2023-01-05T08:19:49.259Z,12.43
2023-01-05T08:20:48.978Z,12.44
2023-01-05T08:21:48.961Z,12.45
2023-01-05T08:22:49.246Z,12.46
2023-01-05T08:23:49.210Z,12.47
2023-01-05T08:24:49.209Z,12.48
2023-01-05T08:25:49.239Z,12.48
2023-01-05T08:26:49.272Z,12.50
2023-01-05T08:27:49.157Z,12.50
2023-01-05T08:28:49.162Z,12.50
2023-01-05T08:29:48.870Z,12.51
2023-01-05T08:30:49.139Z,12.50
2023-01-05T08:31:48.883Z,12.50
2023-01-05T08:32:48.845Z,12.49
2023-01-05T08:33:48.831Z,12.48
2023-01-05T08:34:55.184Z,12.49
2023-01-05T08:35:50.049Z,12.49
2023-01-05T08:36:48.809Z,12.50
2023-01-05T08:37:48.863Z,12.51
2023-01-05T08:38:49.185Z,12.52
2023-01-05T08:39:48.759Z,12.52
2023-01-05T08:40:48.771Z,12.53
2023-01-05T08:41:49.022Z,12.53
2023-01-05T08:42:49.012Z,12.54
2023-01-05T08:43:49.032Z,12.53
2023-01-05T08:44:48.971Z,12.53
2023-01-05T08:45:49.013Z,12.54
2023-01-05T08:46:48.951Z,12.55
2023-01-05T08:47:48.945Z,12.55
2023-01-05T08:48:48.942Z,12.56
2023-01-05T08:49:48.996Z,12.56
2023-01-05T08:50:48.933Z,12.56
2023-01-05T08:51:48.913Z,12.56
2023-01-05T08:52:48.895Z,12.56
2023-01-05T08:53:48.894Z,12.56
2023-01-05T08:54:48.863Z,12.57
2023-01-05T08:55:48.674Z,12.58
2023-01-05T08:56:48.874Z,12.59
2023-01-05T08:57:48.859Z,12.60
2023-01-05T08:58:48.850Z,12.59
2023-01-05T08:59:48.816Z,12.60
2023-01-05T09:00:48.560Z,12.61
2023-01-05T09:01:49.010Z,12.62
2023-01-05T09:02:48.634Z,12.63
2023-01-05T09:03:48.783Z,12.63
2023-01-05T09:04:48.759Z,12.67
2023-01-05T09:05:48.477Z,12.67
2023-01-05T09:06:48.480Z,12.69
2023-01-05T09:07:48.539Z,12.71
2023-01-05T09:08:48.766Z,12.71
2023-01-05T09:09:48.719Z,12.72
2023-01-05T09:10:48.738Z,12.73
2023-01-05T09:11:48.419Z,12.71
2023-01-05T09:12:48.723Z,12.72
2023-01-05T09:13:48.448Z,12.73
2023-01-05T09:14:48.659Z,12.74
2023-01-05T09:15:48.631Z,12.76
2023-01-05T09:17:06.315Z,12.77
2023-01-05T09:17:49.425Z,12.79
2023-01-05T09:18:48.632Z,12.79
2023-01-05T09:19:48.580Z,12.79
2023-01-05T09:20:48.599Z,12.77
2023-01-05T09:21:48.318Z,12.77
2023-01-05T09:22:48.569Z,12.75
2023-01-05T09:23:49.080Z,12.74
2023-01-05T09:24:48.568Z,12.75
2023-01-05T09:25:48.542Z,12.75
2023-01-05T09:26:48.537Z,12.74
2023-01-05T09:27:48.494Z,12.73
2023-01-05T09:28:48.498Z,12.73
2023-01-05T09:29:48.209Z,12.72
2023-01-05T09:30:50.762Z,12.71
2023-01-05T09:31:49.019Z,12.70
2023-01-05T09:32:48.474Z,12.70
2023-01-05T09:33:48.183Z,12.69
2023-01-05T09:34:48.174Z,12.69
2023-01-05T09:35:48.526Z,12.68
2023-01-05T09:36:48.459Z,12.67
2023-01-05T09:37:48.139Z,12.66
2023-01-05T09:38:48.438Z,12.66
2023-01-05T09:39:48.175Z,12.66
2023-01-05T09:40:48.108Z,12.64
2023-01-05T09:41:48.159Z,12.64
2023-01-05T09:42:48.348Z,12.65
2023-01-05T09:43:48.073Z,12.65
2023-01-05T09:44:49.637Z,12.67
2023-01-05T09:45:50.150Z,12.68
2023-01-05T09:46:48.031Z,12.69
2023-01-05T09:47:48.089Z,12.73
2023-01-05T09:48:48.169Z,12.75
2023-01-05T09:49:48.248Z,12.77
2023-01-05T09:50:48.060Z,12.79
2023-01-05T09:51:48.428Z,12.82
2023-01-05T09:52:47.959Z,12.85
2023-01-05T09:53:49.015Z,12.89
2023-01-05T09:54:47.955Z,12.92
2023-01-05T09:55:48.203Z,12.95
2023-01-05T09:57:49.185Z,13.01
2023-01-05T09:58:47.903Z,13.02
2023-01-05T09:59:47.889Z,13.04
2023-01-05T10:00:48.147Z,13.05
2023-01-05T10:01:48.247Z,13.06
2023-01-05T10:02:48.138Z,13.07
2023-01-05T10:04:04.829Z,13.08
2023-01-05T10:04:49.741Z,13.08
2023-01-05T10:05:48.163Z,13.07
2023-01-05T10:06:48.061Z,13.09
2023-01-05T10:07:48.056Z,13.11
2023-01-05T10:08:47.791Z,13.14
2023-01-05T10:09:47.247Z,13.18
2023-01-05T10:10:47.804Z,13.18
2023-01-05T10:11:48.531Z,13.18
2023-01-05T10:12:47.331Z,13.17
2023-01-05T10:13:47.746Z,13.18
2023-01-05T10:14:48.024Z,13.18
2023-01-05T10:15:48.041Z,13.21
2023-01-05T10:16:57.849Z,13.24
2023-01-05T10:17:48.978Z,13.25
2023-01-05T10:18:48.387Z,13.25
2023-01-05T10:19:48.280Z,13.23
2023-01-05T10:20:47.786Z,13.22
2023-01-05T10:21:51.276Z,13.23
2023-01-05T10:22:48.050Z,13.23
2023-01-05T10:23:47.885Z,13.22
2023-01-05T10:24:47.624Z,13.21
2023-01-05T10:25:46.924Z,13.20
2023-01-05T10:27:23.040Z,13.20
2023-01-05T10:27:54.793Z,13.20
2023-01-05T10:28:48.846Z,13.22
2023-01-05T10:29:47.828Z,13.26
2023-01-05T10:30:47.619Z,13.28
2023-01-05T10:31:47.827Z,13.28
2023-01-05T10:32:50.565Z,13.27
2023-01-05T10:33:53.589Z,13.28
2023-01-05T10:34:49.102Z,13.28
2023-01-05T10:36:00.730Z,13.28
2023-01-05T10:37:07.415Z,13.27
2023-01-05T10:37:49.230Z,13.28
2023-01-05T10:38:47.729Z,13.29
2023-01-05T10:39:54.168Z,13.30
2023-01-05T10:40:48.473Z,13.31
2023-01-05T10:41:47.438Z,13.31
2023-01-05T10:42:46.750Z,13.33
2023-01-05T10:43:47.722Z,13.35
2023-01-05T10:44:46.731Z,13.40
2023-01-05T10:46:20.369Z,13.44
2023-01-05T10:46:52.603Z,13.49
2023-01-05T10:47:47.466Z,13.53
2023-01-05T10:48:48.217Z,13.56
2023-01-05T10:49:51.655Z,13.57
2023-01-05T10:50:46.864Z,13.57
2023-01-05T10:51:51.323Z,13.58
2023-01-05T10:52:49.508Z,13.57
2023-01-05T10:53:47.624Z,13.56
2023-01-05T10:54:46.716Z,13.53
2023-01-05T10:55:46.682Z,13.52
2023-01-05T10:56:49.353Z,13.52
2023-01-05T10:57:47.257Z,13.51
2023-01-05T10:58:46.769Z,13.49
2023-01-05T10:59:47.780Z,13.49
2023-01-05T11:00:47.533Z,13.49
2023-01-05T11:01:47.360Z,13.47
2023-01-05T11:02:46.865Z,13.46
2023-01-05T11:04:25.165Z,13.45
2023-01-05T11:04:50.490Z,13.44
2023-01-05T11:05:49.702Z,13.43
2023-01-05T11:06:46.768Z,13.41
2023-01-05T11:07:47.197Z,13.39
2023-01-05T11:08:46.495Z,13.37
2023-01-05T11:09:46.926Z,13.35
2023-01-05T11:10:46.497Z,13.35
2023-01-05T11:11:46.517Z,13.34
2023-01-05T11:12:47.388Z,13.30
2023-01-05T11:13:47.975Z,13.28
2023-01-05T11:14:46.536Z,13.27
2023-01-05T11:15:47.462Z,13.26
2023-01-05T11:16:47.338Z,13.27
2023-01-05T11:17:46.648Z,13.29
2023-01-05T11:18:47.621Z,13.33
2023-01-05T11:19:46.921Z,13.37
2023-01-05T11:20:47.271Z,13.40
2023-01-05T11:21:47.000Z,13.38
2023-01-05T11:22:46.989Z,13.37
2023-01-05T11:23:46.988Z,13.38
2023-01-05T11:24:46.973Z,13.38
2023-01-05T11:25:46.964Z,13.39
2023-01-05T11:26:47.223Z,13.38
2023-01-05T11:27:52.666Z,13.37
2023-01-05T11:28:49.180Z,13.37
2023-01-05T11:29:46.252Z,13.37
2023-01-05T11:30:46.947Z,13.35
2023-01-05T11:31:46.901Z,13.34
2023-01-05T11:32:46.884Z,13.32
2023-01-05T11:33:46.952Z,13.30
2023-01-05T11:34:48.027Z,13.27
2023-01-05T11:35:46.202Z,13.24
2023-01-05T11:36:46.923Z,13.21
2023-01-05T11:37:46.186Z,13.20
2023-01-05T11:38:46.264Z,13.18
2023-01-05T11:39:46.911Z,13.15
2023-01-05T11:40:46.797Z,13.13
2023-01-05T11:41:46.877Z,13.11
2023-01-05T11:42:48.594Z,13.08
2023-01-05T11:43:46.583Z,13.07
2023-01-05T11:44:47.414Z,13.05
2023-01-05T11:45:46.884Z,13.03
2023-01-05T11:46:46.771Z,13.03
2023-01-05T11:47:46.367Z,13.04
2023-01-05T11:48:46.827Z,13.07
2023-01-05T11:49:46.255Z,13.07
2023-01-05T11:50:46.685Z,13.05
2023-01-05T11:51:46.518Z,13.06
2023-01-05T11:52:45.986Z,13.06
2023-01-05T11:53:45.985Z,13.09
2023-01-05T11:54:45.966Z,13.12
2023-01-05T11:55:45.971Z,13.13
2023-01-05T11:56:46.631Z,13.17
2023-01-05T11:57:46.890Z,13.22
2023-01-05T11:58:46.698Z,13.25
2023-01-05T11:59:46.635Z,13.29
2023-01-05T12:00:45.998Z,13.33
2023-01-05T12:01:46.051Z,13.38
2023-01-05T12:02:46.773Z,13.42
2023-01-05T12:03:45.920Z,13.47
2023-01-05T12:04:46.542Z,13.50
2023-01-05T12:05:46.601Z,13.55
2023-01-05T12:06:46.525Z,13.59
2023-01-05T12:07:46.749Z,13.64
2023-01-05T12:08:46.542Z,13.66
2023-01-05T12:09:45.842Z,13.67
2023-01-05T12:10:46.732Z,13.69
2023-01-05T12:11:46.474Z,13.71
2023-01-05T12:12:46.463Z,13.72
2023-01-05T12:13:46.452Z,13.71
2023-01-05T12:14:45.776Z,13.70
2023-01-05T12:15:46.456Z,13.70
2023-01-05T12:16:46.489Z,13.72
2023-01-05T12:17:45.749Z,13.71
2023-01-05T12:18:45.734Z,13.70
2023-01-05T12:19:45.791Z,13.66
2023-01-05T12:20:45.819Z,13.64
2023-01-05T12:21:46.356Z,13.63
2023-01-05T12:22:46.343Z,13.63
2023-01-05T12:23:46.336Z,13.63
2023-01-05T12:24:46.559Z,13.64
2023-01-05T12:25:46.326Z,13.65
2023-01-05T12:26:46.304Z,13.63
2023-01-05T12:27:46.287Z,13.62
2023-01-05T12:28:52.473Z,13.62
2023-01-05T12:31:29.499Z,13.64
2023-01-05T12:34:05.087Z,13.69
2023-01-05T12:34:48.758Z,13.68
2023-01-05T12:35:45.640Z,13.66
2023-01-05T12:36:46.034Z,13.65
2023-01-05T12:37:46.300Z,13.63
2023-01-05T12:38:46.169Z,13.60
2023-01-05T12:39:46.175Z,13.57
2023-01-05T12:40:45.497Z,13.54
2023-01-05T12:41:46.164Z,13.52
2023-01-05T12:42:46.393Z,13.52
2023-01-05T12:43:46.129Z,13.51
2023-01-05T12:44:45.510Z,13.49
2023-01-05T12:45:45.445Z,13.48
2023-01-05T12:46:46.164Z,13.48
2023-01-05T12:47:46.101Z,13.47
2023-01-05T12:48:46.077Z,13.46
2023-01-05T12:49:46.073Z,13.46
2023-01-05T12:50:46.049Z,13.46
2023-01-05T12:51:46.333Z,13.46
2023-01-05T12:52:46.038Z,13.45
2023-01-05T12:53:45.388Z,13.45
2023-01-05T12:54:46.005Z,13.45
2023-01-05T12:55:46.000Z,13.46
2023-01-05T12:56:46.018Z,13.48